RORY(METAR)
10/21 04:00
METAR RORY 201900Z AUTO 08011KT 040V110 9999 BKN022 26/22 Q1014 RMK
A2996=
戻る
トップページへ戻る
IMOC Co,.Ltd.